Terminal Aerodrome Forecast
Issued by NWS Central Illinois

Home | Current Version | Previous Version | Text Only | Print | Product List | Glossary On
Versions: 1 2 3 4 5 6 7 8 9 10 11 12 13 14 15 16 17 18 19 20 21 22 23 24 25 26
348
FTUS43 KILX 302340
TAFSPI
TAF
KSPI 302340Z 0100/0124 16015G22KT P6SM VCTS BKN015CB OVC020
      TEMPO 0100/0103 3SM TSRA BR SCT010CB OVC020
     FM010300 17017G24KT P6SM BKN045
     FM011300 22018G30KT P6SM BKN025=

USA.gov is the U.S. government's official web portal to all federal, state and local government web resources and services.